KSVH

Statesville Regional Airport

Statesville, North Carolina, USA
METAR KSVH 212335Z AUTO 21004KT 10SM SCT055 SCT095 28/21 A2979 RMK AO2 T02820213
Observed Flight Rules
Jun-21 @ 23:35 UTC (23 minutes ago) Visual Flight Rules
Wind Visibility Clouds
210° at 4 knots 10 miles
  • Scattered at 5,500' AGL
  • Scattered at 9,500' AGL
Temperatures Readings
Current 28°C / 82°F
Dewpoint 21°C / 70°F
Humidity 66%
Altimeter 29.79" Hg
Pressure 1009 hPa
Elevation 294
METAR KSVH 212335Z AUTO 21004KT 10SM SCT055 SCT095 28/21 A2979 RMK AO2 T02820213
Observed Flight Rules
Jun-21 @ 23:35 UTC
(23 minutes ago)
VFR
Wind Visibility
210° at 4 knots 10 miles
Clouds
  • Scattered at 5,500' AGL
  • Scattered at 9,500' AGL
Temperature Dewpoint
28°C / 82°F 21°C / 70°F
Humidity Altimeter Pressure
66% 29.79" Hg 1009 hPa